createdAt,value
2022-08-10T00:00:09.677Z,3.70
2022-08-10T00:02:36.565Z,4.67
2022-08-10T00:05:03.628Z,5.57
2022-08-10T00:07:30.329Z,3.37
2022-08-10T00:09:56.987Z,3.60
2022-08-10T00:12:23.705Z,4.20
2022-08-10T00:15:52.335Z,4.50
2022-08-10T00:18:00.908Z,4.97
2022-08-10T00:20:27.545Z,4.47
2022-08-10T00:22:57.937Z,4.73
2022-08-10T00:25:24.855Z,6.63
2022-08-10T00:28:02.084Z,4.70
2022-08-10T00:30:30.082Z,4.07
2022-08-10T00:32:56.744Z,4.60
2022-08-10T00:35:23.428Z,3.87
2022-08-10T00:37:57.785Z,4.20
2022-08-10T00:40:37.048Z,4.33
2022-08-10T00:43:08.138Z,4.40
2022-08-10T00:45:35.562Z,4.20
2022-08-10T00:48:02.309Z,4.87
2022-08-10T00:50:29.105Z,4.60
2022-08-10T00:52:55.771Z,4.80
2022-08-10T00:55:22.425Z,5.37
2022-08-10T00:57:55.491Z,4.80
2022-08-10T01:00:23.864Z,4.77
2022-08-10T01:02:50.717Z,5.07
2022-08-10T01:05:19.354Z,4.47
2022-08-10T01:07:51.259Z,4.40
2022-08-10T01:10:46.331Z,5.60
2022-08-10T01:13:15.922Z,5.07
2022-08-10T01:16:16.582Z,4.80
2022-08-10T01:18:46.886Z,5.07
2022-08-10T01:21:16.248Z,5.13
2022-08-10T01:24:05.961Z,4.70
2022-08-10T01:26:37.257Z,4.50
2022-08-10T01:29:44.574Z,5.43
2022-08-10T01:32:12.354Z,5.10
2022-08-10T01:34:49.736Z,4.87
2022-08-10T01:37:18.401Z,5.60
2022-08-10T01:39:46.709Z,5.10
2022-08-10T01:42:16.767Z,5.20
2022-08-10T01:44:46.594Z,5.33
2022-08-10T01:47:36.900Z,6.40
2022-08-10T01:50:18.774Z,5.47
2022-08-10T01:52:45.813Z,5.73
2022-08-10T01:55:12.474Z,5.87
2022-08-10T01:57:39.121Z,5.40
2022-08-10T02:00:06.847Z,6.00
2022-08-10T02:02:34.139Z,5.93
2022-08-10T02:05:01.003Z,5.70
2022-08-10T02:07:27.743Z,5.77
2022-08-10T02:09:56.552Z,5.13
2022-08-10T02:12:24.636Z,6.10
2022-08-10T02:14:53.412Z,6.70
2022-08-10T02:17:59.064Z,6.00
2022-08-10T02:20:11.528Z,6.03
2022-08-10T02:22:39.256Z,5.40
2022-08-10T02:25:09.010Z,5.37
2022-08-10T02:27:35.958Z,6.20
2022-08-10T02:30:03.693Z,5.47
2022-08-10T02:32:37.969Z,5.40
2022-08-10T02:35:07.775Z,5.90
2022-08-10T02:37:34.750Z,5.17
2022-08-10T02:40:01.414Z,5.57
2022-08-10T02:45:19.470Z,4.90
2022-08-10T02:45:31.788Z,4.70
2022-08-10T02:48:03.222Z,4.93
2022-08-10T02:50:36.977Z,5.23
2022-08-10T02:53:55.089Z,5.83
2022-08-10T02:56:23.609Z,5.43
2022-08-10T02:59:05.941Z,6.20
2022-08-10T03:01:34.939Z,5.40
2022-08-10T03:04:06.699Z,5.43
2022-08-10T03:06:46.395Z,5.50
2022-08-10T03:09:15.177Z,5.40
2022-08-10T03:12:35.082Z,5.33
2022-08-10T03:14:29.075Z,5.80
2022-08-10T03:16:55.759Z,6.00
2022-08-10T03:20:04.670Z,5.03
2022-08-10T03:22:09.046Z,5.30
2022-08-10T03:24:35.822Z,6.80
2022-08-10T03:27:02.666Z,5.67
2022-08-10T03:29:29.325Z,6.67
2022-08-10T03:31:55.998Z,5.70
2022-08-10T03:34:33.417Z,5.43
2022-08-10T03:37:00.759Z,5.80
2022-08-10T03:39:27.721Z,6.27
2022-08-10T03:41:56.123Z,5.43
2022-08-10T03:44:25.824Z,5.03
2022-08-10T03:46:52.595Z,5.47
2022-08-10T03:49:19.795Z,5.47
2022-08-10T03:51:49.196Z,5.63
2022-08-10T03:54:17.063Z,5.90
2022-08-10T03:56:43.877Z,4.97
2022-08-10T03:59:12.298Z,5.80
2022-08-10T04:02:43.421Z,5.77
2022-08-10T04:04:26.067Z,5.57
2022-08-10T04:06:55.630Z,5.70
2022-08-10T04:09:24.099Z,5.40
2022-08-10T04:11:50.751Z,5.93
2022-08-10T04:14:38.335Z,6.30
2022-08-10T04:17:04.291Z,6.23
2022-08-10T04:19:35.632Z,5.10
2022-08-10T04:22:10.357Z,5.30
2022-08-10T04:24:37.132Z,5.60
2022-08-10T04:27:03.984Z,5.17
2022-08-10T04:29:30.862Z,5.40
2022-08-10T04:31:57.662Z,5.40
2022-08-10T04:34:24.316Z,6.13
2022-08-10T04:36:51.418Z,6.43
2022-08-10T04:39:18.153Z,5.37
2022-08-10T04:41:47.316Z,6.00
2022-08-10T04:44:14.400Z,5.63
2022-08-10T04:46:55.986Z,6.37
2022-08-10T04:49:56.119Z,5.13
2022-08-10T04:52:11.555Z,5.67
2022-08-10T04:54:38.241Z,5.13
2022-08-10T04:57:05.438Z,5.13
2022-08-10T04:59:32.098Z,5.07
2022-08-10T05:02:30.403Z,4.53
2022-08-10T05:04:45.482Z,4.90
2022-08-10T05:07:16.259Z,5.17
2022-08-10T05:10:03.614Z,4.30
2022-08-10T05:12:31.331Z,4.60
2022-08-10T05:14:58.003Z,4.13
2022-08-10T05:17:24.735Z,4.53
2022-08-10T05:20:02.204Z,4.90
2022-08-10T05:22:32.421Z,3.93
2022-08-10T05:24:59.091Z,4.73
2022-08-10T05:27:25.745Z,3.70
2022-08-10T05:30:01.225Z,4.80
2022-08-10T05:32:29.616Z,4.33
2022-08-10T05:34:56.267Z,4.17
2022-08-10T05:38:12.629Z,3.63
2022-08-10T05:40:09.861Z,4.10
2022-08-10T05:42:36.772Z,4.37
2022-08-10T05:45:04.184Z,4.10
2022-08-10T05:48:54.022Z,4.97
2022-08-10T05:50:18.370Z,4.40
2022-08-10T05:52:45.162Z,3.93
2022-08-10T05:55:11.843Z,3.97
2022-08-10T05:57:38.491Z,3.50
2022-08-10T06:00:36.728Z,4.00
2022-08-10T06:03:01.919Z,4.37
2022-08-10T06:05:30.112Z,3.40
2022-08-10T06:08:06.174Z,3.80
2022-08-10T06:10:35.666Z,4.20
2022-08-10T06:13:30.360Z,3.83
2022-08-10T06:16:02.829Z,6.00
2022-08-10T06:18:29.487Z,3.97
2022-08-10T06:20:56.213Z,3.70
2022-08-10T06:23:22.999Z,3.57
2022-08-10T06:26:12.027Z,3.83
2022-08-10T06:28:38.280Z,4.33
2022-08-10T06:31:05.511Z,3.97
2022-08-10T06:33:33.955Z,3.30
2022-08-10T06:36:00.807Z,3.77
2022-08-10T06:38:29.989Z,3.40
2022-08-10T06:40:58.252Z,3.47
2022-08-10T06:43:25.791Z,3.67
2022-08-10T06:46:08.639Z,4.43
2022-08-10T06:48:45.907Z,4.00
2022-08-10T06:51:14.631Z,3.90
2022-08-10T06:53:55.169Z,4.40
2022-08-10T06:56:36.535Z,5.40
2022-08-10T06:59:21.276Z,3.67
2022-08-10T07:01:52.113Z,3.50
2022-08-10T07:04:33.717Z,4.27
2022-08-10T07:07:05.095Z,3.77
2022-08-10T07:09:32.799Z,3.57
2022-08-10T07:12:08.659Z,3.40
2022-08-10T07:14:44.963Z,3.30
2022-08-10T07:17:15.932Z,3.73
2022-08-10T07:19:50.227Z,5.60
2022-08-10T07:23:01.304Z,5.40
2022-08-10T07:25:05.925Z,3.33
2022-08-10T07:27:39.304Z,4.53
2022-08-10T07:30:20.669Z,3.10
2022-08-10T07:32:48.634Z,3.43
2022-08-10T07:35:15.950Z,3.40
2022-08-10T07:37:42.868Z,3.67
2022-08-10T07:40:09.855Z,3.43
2022-08-10T07:42:38.175Z,3.23
2022-08-10T07:45:06.953Z,2.97
2022-08-10T07:47:46.210Z,3.13
2022-08-10T07:50:20.482Z,3.13
2022-08-10T07:52:47.361Z,3.00
2022-08-10T07:55:16.953Z,2.87
2022-08-10T07:57:44.223Z,2.47
2022-08-10T08:00:11.904Z,3.00
2022-08-10T08:02:51.275Z,2.90
2022-08-10T08:05:55.177Z,2.40
2022-08-10T08:08:06.215Z,2.93
2022-08-10T08:10:32.932Z,3.10
2022-08-10T08:13:01.290Z,2.20
2022-08-10T08:16:18.270Z,2.03
2022-08-10T08:18:15.936Z,5.77
2022-08-10T08:20:43.142Z,3.13
2022-08-10T08:24:15.034Z,3.10
2022-08-10T08:25:59.947Z,2.57
2022-08-10T08:28:27.303Z,2.53
2022-08-10T08:30:54.473Z,2.70
2022-08-10T08:33:42.108Z,2.13
2022-08-10T08:36:08.119Z,2.57
2022-08-10T08:38:36.128Z,2.80
2022-08-10T08:41:38.434Z,2.57
2022-08-10T08:44:31.614Z,2.40
2022-08-10T08:48:03.525Z,4.40
2022-08-10T08:50:44.757Z,3.80
2022-08-10T08:54:02.401Z,2.50
2022-08-10T08:56:28.314Z,4.20
2022-08-10T08:59:13.846Z,3.17
2022-08-10T09:02:09.788Z,3.53
2022-08-10T09:05:01.519Z,4.60
2022-08-10T09:08:02.209Z,2.80
2022-08-10T09:10:51.040Z,2.33
2022-08-10T09:13:32.211Z,2.50
2022-08-10T09:16:24.221Z,2.60
2022-08-10T09:19:10.802Z,2.23
2022-08-10T09:22:09.929Z,2.20
2022-08-10T09:25:15.644Z,2.73
2022-08-10T09:28:00.241Z,2.50
2022-08-10T09:30:57.663Z,2.17
2022-08-10T09:36:19.530Z,2.07
2022-08-10T09:37:17.227Z,2.87
2022-08-10T09:40:12.752Z,2.03
2022-08-10T09:43:23.611Z,3.20
2022-08-10T09:46:11.873Z,2.87
2022-08-10T09:48:44.629Z,2.87
2022-08-10T09:51:47.944Z,2.73
2022-08-10T09:54:16.722Z,4.70
2022-08-10T09:56:49.536Z,2.87
2022-08-10T10:00:00.689Z,2.50
2022-08-10T10:02:29.527Z,2.60
2022-08-10T10:04:59.908Z,2.77
2022-08-10T10:07:27.279Z,2.60
2022-08-10T10:10:04.031Z,2.33
2022-08-10T10:13:06.990Z,2.57
2022-08-10T10:16:07.942Z,2.50
2022-08-10T10:18:34.626Z,6.30
2022-08-10T10:21:54.233Z,2.60
2022-08-10T10:24:36.332Z,2.10
2022-08-10T10:27:32.815Z,2.17
2022-08-10T10:30:17.754Z,2.73
2022-08-10T10:33:08.263Z,2.93
2022-08-10T10:35:52.835Z,3.83
2022-08-10T10:38:19.626Z,2.30
2022-08-10T10:41:01.670Z,2.00
2022-08-10T10:43:31.384Z,3.43
2022-08-10T10:46:13.353Z,2.83
2022-08-10T10:49:19.349Z,3.47
2022-08-10T10:52:06.982Z,2.30
2022-08-10T10:54:45.171Z,2.13
2022-08-10T10:57:58.771Z,2.10
2022-08-10T11:00:22.081Z,1.97
2022-08-10T11:02:51.766Z,2.20
2022-08-10T11:05:38.343Z,2.00
2022-08-10T11:08:11.413Z,2.40
2022-08-10T11:10:52.645Z,2.20
2022-08-10T11:14:24.714Z,3.70
2022-08-10T11:16:18.313Z,5.13
2022-08-10T11:19:18.752Z,1.87
2022-08-10T11:22:07.126Z,1.60
2022-08-10T11:24:47.342Z,5.47
2022-08-10T11:27:48.781Z,2.80
2022-08-10T11:30:24.927Z,1.97
2022-08-10T11:33:12.572Z,2.17
2022-08-10T11:35:48.610Z,2.30
2022-08-10T11:39:12.590Z,2.20
2022-08-10T11:42:12.383Z,1.93
2022-08-10T11:45:05.997Z,2.40
2022-08-10T11:47:53.506Z,2.20
2022-08-10T11:50:43.800Z,1.93
2022-08-10T11:53:17.586Z,2.90
2022-08-10T11:55:45.491Z,1.83
2022-08-10T11:58:31.075Z,5.07
2022-08-10T12:01:02.178Z,2.00
2022-08-10T12:03:34.403Z,1.57
2022-08-10T12:06:01.578Z,1.50
2022-08-10T12:10:05.425Z,3.20
2022-08-10T12:11:24.653Z,3.60
2022-08-10T12:14:28.069Z,1.80
2022-08-10T12:17:06.846Z,4.50
2022-08-10T12:20:05.447Z,4.03
2022-08-10T12:22:42.366Z,2.37
2022-08-10T12:25:11.541Z,3.87
2022-08-10T12:28:05.221Z,2.10
2022-08-10T12:30:33.838Z,1.70
2022-08-10T12:33:26.559Z,3.30
2022-08-10T12:36:17.061Z,1.93
2022-08-10T12:38:53.147Z,2.07
2022-08-10T12:41:43.951Z,2.33
2022-08-10T12:44:41.710Z,1.93
2022-08-10T12:47:33.324Z,2.87
2022-08-10T12:50:30.042Z,2.73
2022-08-10T12:53:06.655Z,3.13
2022-08-10T12:55:34.115Z,2.10
2022-08-10T12:58:00.948Z,1.63
2022-08-10T13:00:33.671Z,1.93
2022-08-10T13:03:01.636Z,3.53
2022-08-10T13:05:28.920Z,3.60
2022-08-10T13:08:34.057Z,1.60
2022-08-10T13:11:05.145Z,1.87
2022-08-10T13:13:52.530Z,1.80
2022-08-10T13:16:22.349Z,1.40
2022-08-10T13:18:49.034Z,1.83
2022-08-10T13:21:19.983Z,5.03
2022-08-10T13:24:03.407Z,1.97
2022-08-10T13:26:32.841Z,1.83
2022-08-10T13:29:02.008Z,2.50
2022-08-10T13:32:10.067Z,2.30
2022-08-10T13:34:42.399Z,1.80
2022-08-10T13:37:12.107Z,1.53
2022-08-10T13:39:59.441Z,1.60
2022-08-10T13:42:35.750Z,1.70
2022-08-10T13:45:22.366Z,1.53
2022-08-10T13:47:50.414Z,1.93
2022-08-10T13:50:33.516Z,3.03
2022-08-10T13:53:02.426Z,2.80
2022-08-10T13:55:54.589Z,2.23
2022-08-10T13:58:15.988Z,2.00
2022-08-10T14:00:45.247Z,1.80
2022-08-10T14:03:14.362Z,1.77
2022-08-10T14:05:44.580Z,2.80
2022-08-10T14:08:12.558Z,2.10
2022-08-10T14:11:09.497Z,1.93
2022-08-10T14:13:27.898Z,1.67
2022-08-10T14:15:55.134Z,1.97
2022-08-10T14:18:21.766Z,1.60
2022-08-10T14:20:48.416Z,2.30
2022-08-10T14:23:15.322Z,3.47
2022-08-10T14:25:59.414Z,3.63
2022-08-10T14:28:32.851Z,1.70
2022-08-10T14:31:02.901Z,1.80
2022-08-10T14:33:30.262Z,2.53
2022-08-10T14:36:21.387Z,2.33
2022-08-10T14:38:43.790Z,3.97
2022-08-10T14:42:01.132Z,1.60
2022-08-10T14:44:07.946Z,1.87
2022-08-10T14:46:34.763Z,4.83
2022-08-10T14:49:01.435Z,3.57
2022-08-10T14:51:48.168Z,1.60
2022-08-10T14:54:17.612Z,2.70
2022-08-10T14:56:44.945Z,2.60
2022-08-10T14:59:18.563Z,2.43
2022-08-10T15:02:01.395Z,2.10
2022-08-10T15:04:32.207Z,2.10
2022-08-10T15:07:12.688Z,1.93
2022-08-10T15:10:00.966Z,2.10
2022-08-10T15:12:36.110Z,4.43
2022-08-10T15:15:04.536Z,2.43
2022-08-10T15:17:37.193Z,9.10
2022-08-10T15:20:14.471Z,3.70
2022-08-10T15:22:50.353Z,6.53
2022-08-10T15:25:25.195Z,2.50
2022-08-10T15:28:05.346Z,5.43
2022-08-10T15:30:40.990Z,9.93
2022-08-10T15:34:03.043Z,2.80
2022-08-10T15:36:36.328Z,2.77
2022-08-10T15:39:16.649Z,2.17
2022-08-10T15:41:59.902Z,5.90
2022-08-10T15:44:40.399Z,3.83
2022-08-10T15:47:45.056Z,4.83
2022-08-10T15:50:19.883Z,2.00
2022-08-10T15:53:02.162Z,1.60
2022-08-10T15:55:43.288Z,1.57
2022-08-10T15:58:39.029Z,1.80
2022-08-10T16:02:12.564Z,1.93
2022-08-10T16:04:18.388Z,3.00
2022-08-10T16:06:55.668Z,2.03
2022-08-10T16:10:23.981Z,1.70
2022-08-10T16:12:14.900Z,1.90
2022-08-10T16:14:44.959Z,2.00
2022-08-10T16:17:12.376Z,2.60
2022-08-10T16:19:52.522Z,4.53
2022-08-10T16:22:34.306Z,2.10
2022-08-10T16:25:14.114Z,1.70
2022-08-10T16:27:40.805Z,1.60
2022-08-10T16:30:07.844Z,2.10
2022-08-10T16:32:34.587Z,1.67
2022-08-10T16:35:01.674Z,4.23
2022-08-10T16:37:57.908Z,2.00
2022-08-10T16:40:23.062Z,1.57
2022-08-10T16:42:49.751Z,1.57
2022-08-10T16:45:22.351Z,1.83
2022-08-10T16:47:50.709Z,1.60
2022-08-10T16:50:22.262Z,1.63
2022-08-10T16:52:49.777Z,1.90
2022-08-10T16:55:24.567Z,2.10
2022-08-10T16:58:05.894Z,2.80
2022-08-10T17:00:32.527Z,2.40
2022-08-10T17:03:03.595Z,1.80
2022-08-10T17:06:09.516Z,2.07
2022-08-10T17:08:39.457Z,2.87
2022-08-10T17:11:15.009Z,2.50
2022-08-10T17:13:42.097Z,1.97
2022-08-10T17:16:10.538Z,1.73
2022-08-10T17:18:39.141Z,2.30
2022-08-10T17:21:22.801Z,1.87
2022-08-10T17:23:51.603Z,1.70
2022-08-10T17:26:35.119Z,1.93
2022-08-10T17:29:17.165Z,2.03
2022-08-10T17:31:59.687Z,2.00
2022-08-10T17:34:36.796Z,2.07
2022-08-10T17:37:04.584Z,2.13
2022-08-10T17:39:38.644Z,1.97
2022-08-10T17:42:07.962Z,1.80
2022-08-10T17:44:38.935Z,1.87
2022-08-10T17:47:11.247Z,1.80
2022-08-10T17:49:38.225Z,1.67
2022-08-10T17:52:07.349Z,2.60
2022-08-10T17:54:36.243Z,4.13
2022-08-10T17:57:06.622Z,2.10
2022-08-10T17:59:33.359Z,2.10
2022-08-10T18:02:05.615Z,2.00
2022-08-10T18:04:42.174Z,2.63
2022-08-10T18:07:09.909Z,3.30
2022-08-10T18:09:45.060Z,2.87
2022-08-10T18:12:17.911Z,2.20
2022-08-10T18:14:46.959Z,4.40
2022-08-10T18:17:15.208Z,2.43
2022-08-10T18:19:44.053Z,2.80
2022-08-10T18:22:14.573Z,2.10
2022-08-10T18:24:41.418Z,2.30
2022-08-10T18:27:08.126Z,2.37
2022-08-10T18:29:35.239Z,3.53
2022-08-10T18:32:02.614Z,2.20
2022-08-10T18:34:32.064Z,3.80
2022-08-10T18:36:58.740Z,3.70
2022-08-10T18:39:32.103Z,2.40
2022-08-10T18:42:05.655Z,2.27
2022-08-10T18:44:35.071Z,2.37
2022-08-10T18:47:15.255Z,2.30
2022-08-10T18:50:05.536Z,2.70
2022-08-10T18:52:32.971Z,2.33
2022-08-10T18:55:24.564Z,2.40
2022-08-10T18:58:00.758Z,3.83
2022-08-10T19:00:56.037Z,2.13
2022-08-10T19:03:53.835Z,2.40
2022-08-10T19:06:42.679Z,3.47
2022-08-10T19:09:47.411Z,2.70
2022-08-10T19:12:42.517Z,2.03
2022-08-10T19:15:19.246Z,1.93
2022-08-10T19:18:13.679Z,2.00
2022-08-10T19:20:58.062Z,2.60
2022-08-10T19:23:52.624Z,2.73
2022-08-10T19:26:36.604Z,2.13
2022-08-10T19:30:09.433Z,2.10
2022-08-10T19:32:36.206Z,2.23
2022-08-10T19:35:17.518Z,2.30
2022-08-10T19:38:00.579Z,2.43
2022-08-10T19:40:51.440Z,3.63
2022-08-10T19:43:20.607Z,2.97
2022-08-10T19:46:05.740Z,2.13
2022-08-10T19:48:47.496Z,2.17
2022-08-10T19:51:29.704Z,2.00
2022-08-10T19:54:07.968Z,2.50
2022-08-10T19:56:58.739Z,2.50
2022-08-10T20:00:18.622Z,2.57
2022-08-10T20:02:33.712Z,2.57
2022-08-10T20:05:29.551Z,2.77
2022-08-10T20:08:07.644Z,2.23
2022-08-10T20:10:51.872Z,2.83
2022-08-10T20:13:27.375Z,3.20
2022-08-10T20:15:56.909Z,2.43
2022-08-10T20:18:27.266Z,2.50
2022-08-10T20:20:59.450Z,2.90
2022-08-10T20:23:33.269Z,2.77
2022-08-10T20:26:15.360Z,2.93
2022-08-10T20:29:16.228Z,2.43
2022-08-10T20:31:52.972Z,2.93
2022-08-10T20:34:51.601Z,3.07
2022-08-10T20:38:01.925Z,5.23
2022-08-10T20:40:22.563Z,3.40
2022-08-10T20:43:06.998Z,2.30
2022-08-10T20:46:05.423Z,2.67
2022-08-10T20:48:33.263Z,2.83
2022-08-10T20:51:05.642Z,2.53
2022-08-10T20:53:33.457Z,3.00
2022-08-10T20:56:10.751Z,3.07
2022-08-10T20:59:08.928Z,2.93
2022-08-10T21:02:06.229Z,3.03
2022-08-10T21:05:08.699Z,2.40
2022-08-10T21:08:03.574Z,2.50
2022-08-10T21:10:37.748Z,2.37
2022-08-10T21:13:10.311Z,2.50
2022-08-10T21:15:47.870Z,2.40
2022-08-10T21:18:20.506Z,2.10
2022-08-10T21:24:23.861Z,2.80
2022-08-10T21:25:42.179Z,3.03
2022-08-10T21:26:55.596Z,2.70
2022-08-10T21:29:41.876Z,2.80
2022-08-10T21:32:57.327Z,3.30
2022-08-10T21:35:45.706Z,3.03
2022-08-10T21:38:40.021Z,3.10
2022-08-10T21:41:58.300Z,3.20
2022-08-10T21:45:21.698Z,3.17
2022-08-10T21:48:57.216Z,2.60
2022-08-10T21:52:04.023Z,3.20
2022-08-10T21:54:59.733Z,2.30
2022-08-10T21:58:22.904Z,3.20
2022-08-10T22:01:22.475Z,3.40
2022-08-10T22:04:24.890Z,2.73
2022-08-10T22:07:09.999Z,3.17
2022-08-10T22:09:58.136Z,3.97
2022-08-10T22:12:48.388Z,3.40
2022-08-10T22:16:03.141Z,3.47
2022-08-10T22:18:53.677Z,3.40
2022-08-10T22:25:45.550Z,3.40
2022-08-10T22:28:37.608Z,3.70
2022-08-10T22:31:26.094Z,3.03
2022-08-10T22:31:50.578Z,3.10
2022-08-10T22:35:05.387Z,4.03
2022-08-10T22:37:57.053Z,3.33
2022-08-10T22:40:42.679Z,3.30
2022-08-10T22:43:45.784Z,2.97
2022-08-10T22:46:43.304Z,3.30
2022-08-10T22:49:10.148Z,3.17
2022-08-10T22:51:39.760Z,4.83
2022-08-10T22:54:47.007Z,4.20
2022-08-10T22:57:33.665Z,3.00
2022-08-10T23:00:14.417Z,3.27
2022-08-10T23:02:52.394Z,4.50
2022-08-10T23:05:36.616Z,4.20
2022-08-10T23:08:30.073Z,3.90
2022-08-10T23:11:01.418Z,4.83
2022-08-10T23:13:36.055Z,4.53
2022-08-10T23:16:27.263Z,3.77
2022-08-10T23:19:11.257Z,3.30
2022-08-10T23:22:04.479Z,3.63
2022-08-10T23:24:51.860Z,3.40
2022-08-10T23:27:37.391Z,4.23
2022-08-10T23:30:10.216Z,3.73
2022-08-10T23:32:40.885Z,4.73
2022-08-10T23:36:21.358Z,3.73
2022-08-10T23:37:57.417Z,3.60
2022-08-10T23:40:24.105Z,3.53
2022-08-10T23:42:52.022Z,4.30
2022-08-10T23:45:27.027Z,4.20
2022-08-10T23:47:58.867Z,4.27
2022-08-10T23:50:26.165Z,3.83
2022-08-10T23:52:57.205Z,3.87
2022-08-10T23:55:39.228Z,4.50
2022-08-10T23:58:31.819Z,5.63
